Terminal Aerodrome Forecast
Issued by NWS

Home | Current Version | Previous Version | Text Only | Print | Product List | Glossary On
Versions: 1 2 3 4 5 6 7 8 9 10 11 12
000
FTUS42 TJSJ 182330
TAFJPS
TAF
TJPS 182330Z 1900/1924 VRB05KT P6SM SCT030 SCT050 BKN120
     FM191300 18007KT P6SM VCSH FEW030 SCT060
     FM192300 VRB04KT P6SM VCSH SCT030 BKN120
      AMD NOT SKED=

USA.gov is the U.S. government's official web portal to all federal, state and local government web resources and services.